sensor_id;sensor_type;location;lat;lon;timestamp;P1;durP1;ratioP1;P2;durP2;ratioP2
29168;SDS011;16219;42.864;23.360;2023-08-17T00:00:02;438.42;;;395.27;;
29168;SDS011;16219;42.864;23.360;2023-08-17T00:02:34;415.58;;;374.05;;
29168;SDS011;16219;42.864;23.360;2023-08-17T00:05:01;518.60;;;468.70;;
29168;SDS011;16219;42.864;23.360;2023-08-17T00:07:29;505.88;;;457.38;;
29168;SDS011;16219;42.864;23.360;2023-08-17T00:09:55;506.35;;;456.15;;
29168;SDS011;16219;42.864;23.360;2023-08-17T00:12:23;468.02;;;421.27;;
29168;SDS011;16219;42.864;23.360;2023-08-17T00:14:50;530.63;;;479.23;;
29168;SDS011;16219;42.864;23.360;2023-08-17T00:17:21;500.33;;;450.70;;
29168;SDS011;16219;42.864;23.360;2023-08-17T00:19:49;492.10;;;442.77;;
29168;SDS011;16219;42.864;23.360;2023-08-17T00:22:16;479.17;;;430.05;;
29168;SDS011;16219;42.864;23.360;2023-08-17T00:24:43;518.72;;;466.55;;
29168;SDS011;16219;42.864;23.360;2023-08-17T00:27:10;531.83;;;478.60;;
29168;SDS011;16219;42.864;23.360;2023-08-17T00:29:38;551.58;;;495.98;;
29168;SDS011;16219;42.864;23.360;2023-08-17T00:32:05;544.70;;;489.45;;
29168;SDS011;16219;42.864;23.360;2023-08-17T00:34:36;553.50;;;499.25;;
29168;SDS011;16219;42.864;23.360;2023-08-17T00:37:03;541.33;;;487.83;;
29168;SDS011;16219;42.864;23.360;2023-08-17T00:39:30;574.40;;;516.35;;
29168;SDS011;16219;42.864;23.360;2023-08-17T00:41:57;540.42;;;486.55;;
29168;SDS011;16219;42.864;23.360;2023-08-17T00:44:24;466.73;;;418.80;;
29168;SDS011;16219;42.864;23.360;2023-08-17T00:46:51;581.05;;;522.63;;
29168;SDS011;16219;42.864;23.360;2023-08-17T00:49:18;555.08;;;500.00;;
29168;SDS011;16219;42.864;23.360;2023-08-17T00:51:47;568.63;;;511.00;;
29168;SDS011;16219;42.864;23.360;2023-08-17T00:54:14;564.55;;;507.98;;
29168;SDS011;16219;42.864;23.360;2023-08-17T00:56:47;574.15;;;517.17;;
29168;SDS011;16219;42.864;23.360;2023-08-17T00:59:14;593.30;;;533.97;;
29168;SDS011;16219;42.864;23.360;2023-08-17T01:01:42;541.28;;;487.10;;
29168;SDS011;16219;42.864;23.360;2023-08-17T01:04:09;586.28;;;526.40;;
29168;SDS011;16219;42.864;23.360;2023-08-17T01:06:36;593.47;;;535.10;;
29168;SDS011;16219;42.864;23.360;2023-08-17T01:09:06;583.75;;;525.17;;
29168;SDS011;16219;42.864;23.360;2023-08-17T01:11:36;538.85;;;486.33;;
29168;SDS011;16219;42.864;23.360;2023-08-17T01:14:09;623.05;;;562.47;;
29168;SDS011;16219;42.864;23.360;2023-08-17T01:16:43;589.03;;;531.13;;
29168;SDS011;16219;42.864;23.360;2023-08-17T01:19:18;541.63;;;488.07;;
29168;SDS011;16219;42.864;23.360;2023-08-17T01:21:54;548.13;;;493.08;;
29168;SDS011;16219;42.864;23.360;2023-08-17T01:24:25;610.75;;;551.97;;
29168;SDS011;16219;42.864;23.360;2023-08-17T01:26:53;595.25;;;535.65;;
29168;SDS011;16219;42.864;23.360;2023-08-17T01:29:20;678.08;;;612.17;;
29168;SDS011;16219;42.864;23.360;2023-08-17T01:31:52;634.53;;;571.20;;
29168;SDS011;16219;42.864;23.360;2023-08-17T01:34:31;574.67;;;516.00;;
29168;SDS011;16219;42.864;23.360;2023-08-17T01:37:03;608.13;;;547.35;;
29168;SDS011;16219;42.864;23.360;2023-08-17T01:39:36;651.17;;;587.15;;
29168;SDS011;16219;42.864;23.360;2023-08-17T01:42:04;640.15;;;579.08;;
29168;SDS011;16219;42.864;23.360;2023-08-17T01:44:33;562.28;;;503.90;;
29168;SDS011;16219;42.864;23.360;2023-08-17T01:47:00;650.58;;;586.65;;
29168;SDS011;16219;42.864;23.360;2023-08-17T01:49:27;661.20;;;598.55;;
29168;SDS011;16219;42.864;23.360;2023-08-17T01:51:54;627.30;;;566.30;;
29168;SDS011;16219;42.864;23.360;2023-08-17T01:54:21;664.38;;;598.95;;
29168;SDS011;16219;42.864;23.360;2023-08-17T01:56:50;622.75;;;560.90;;
29168;SDS011;16219;42.864;23.360;2023-08-17T01:59:17;613.55;;;552.90;;
29168;SDS011;16219;42.864;23.360;2023-08-17T02:01:44;646.70;;;582.80;;
29168;SDS011;16219;42.864;23.360;2023-08-17T02:04:11;674.17;;;609.33;;
29168;SDS011;16219;42.864;23.360;2023-08-17T02:06:38;697.72;;;628.78;;
29168;SDS011;16219;42.864;23.360;2023-08-17T02:09:05;668.47;;;602.15;;
29168;SDS011;16219;42.864;23.360;2023-08-17T02:11:32;691.05;;;623.20;;
29168;SDS011;16219;42.864;23.360;2023-08-17T02:14:01;671.97;;;605.63;;
29168;SDS011;16219;42.864;23.360;2023-08-17T02:16:28;667.08;;;601.38;;
29168;SDS011;16219;42.864;23.360;2023-08-17T02:18:55;668.78;;;600.53;;
29168;SDS011;16219;42.864;23.360;2023-08-17T02:21:24;625.17;;;562.28;;
29168;SDS011;16219;42.864;23.360;2023-08-17T02:23:51;680.58;;;614.03;;
29168;SDS011;16219;42.864;23.360;2023-08-17T02:26:20;604.13;;;543.03;;
29168;SDS011;16219;42.864;23.360;2023-08-17T02:28:47;668.63;;;603.53;;
29168;SDS011;16219;42.864;23.360;2023-08-17T02:31:15;690.58;;;622.10;;
29168;SDS011;16219;42.864;23.360;2023-08-17T02:33:42;654.60;;;589.80;;
29168;SDS011;16219;42.864;23.360;2023-08-17T02:36:10;685.60;;;618.88;;
29168;SDS011;16219;42.864;23.360;2023-08-17T02:38:37;660.00;;;593.67;;
29168;SDS011;16219;42.864;23.360;2023-08-17T02:41:04;591.50;;;530.70;;
29168;SDS011;16219;42.864;23.360;2023-08-17T02:43:31;671.42;;;604.85;;
29168;SDS011;16219;42.864;23.360;2023-08-17T02:45:58;708.20;;;639.67;;
29168;SDS011;16219;42.864;23.360;2023-08-17T02:48:27;621.97;;;560.75;;
29168;SDS011;16219;42.864;23.360;2023-08-17T02:50:55;690.28;;;623.38;;
29168;SDS011;16219;42.864;23.360;2023-08-17T02:53:22;667.47;;;601.35;;
29168;SDS011;16219;42.864;23.360;2023-08-17T02:55:50;685.13;;;617.20;;
29168;SDS011;16219;42.864;23.360;2023-08-17T02:58:17;702.50;;;632.22;;
29168;SDS011;16219;42.864;23.360;2023-08-17T03:00:44;629.92;;;566.35;;
29168;SDS011;16219;42.864;23.360;2023-08-17T03:03:13;711.47;;;640.47;;
29168;SDS011;16219;42.864;23.360;2023-08-17T03:05:41;736.40;;;664.30;;
29168;SDS011;16219;42.864;23.360;2023-08-17T03:08:09;725.63;;;654.85;;
29168;SDS011;16219;42.864;23.360;2023-08-17T03:10:36;725.75;;;654.65;;
29168;SDS011;16219;42.864;23.360;2023-08-17T03:13:04;655.50;;;589.78;;
29168;SDS011;16219;42.864;23.360;2023-08-17T03:15:31;687.47;;;619.47;;
29168;SDS011;16219;42.864;23.360;2023-08-17T03:17:58;692.33;;;624.05;;
29168;SDS011;16219;42.864;23.360;2023-08-17T03:20:26;690.15;;;622.80;;
29168;SDS011;16219;42.864;23.360;2023-08-17T03:22:54;757.50;;;684.13;;
29168;SDS011;16219;42.864;23.360;2023-08-17T03:25:22;726.00;;;653.92;;
29168;SDS011;16219;42.864;23.360;2023-08-17T03:27:49;732.80;;;659.75;;
29168;SDS011;16219;42.864;23.360;2023-08-17T03:30:17;665.55;;;598.60;;
29168;SDS011;16219;42.864;23.360;2023-08-17T03:32:44;687.67;;;619.33;;
29168;SDS011;16219;42.864;23.360;2023-08-17T03:35:11;695.60;;;626.80;;
29168;SDS011;16219;42.864;23.360;2023-08-17T03:37:39;707.22;;;638.20;;
29168;SDS011;16219;42.864;23.360;2023-08-17T03:40:08;704.75;;;634.78;;
29168;SDS011;16219;42.864;23.360;2023-08-17T03:42:35;696.22;;;625.85;;
29168;SDS011;16219;42.864;23.360;2023-08-17T03:45:02;664.88;;;598.80;;
29168;SDS011;16219;42.864;23.360;2023-08-17T03:47:30;648.17;;;581.50;;
29168;SDS011;16219;42.864;23.360;2023-08-17T03:49:56;656.00;;;588.90;;
29168;SDS011;16219;42.864;23.360;2023-08-17T03:52:23;642.33;;;576.50;;
29168;SDS011;16219;42.864;23.360;2023-08-17T03:54:51;661.97;;;594.78;;
29168;SDS011;16219;42.864;23.360;2023-08-17T03:57:19;672.33;;;605.05;;
29168;SDS011;16219;42.864;23.360;2023-08-17T03:59:46;738.78;;;665.42;;
29168;SDS011;16219;42.864;23.360;2023-08-17T04:02:13;691.97;;;623.38;;
29168;SDS011;16219;42.864;23.360;2023-08-17T04:04:40;733.78;;;659.80;;
29168;SDS011;16219;42.864;23.360;2023-08-17T04:07:07;743.50;;;667.35;;
29168;SDS011;16219;42.864;23.360;2023-08-17T04:09:34;766.40;;;688.72;;
29168;SDS011;16219;42.864;23.360;2023-08-17T04:12:01;695.70;;;624.35;;
29168;SDS011;16219;42.864;23.360;2023-08-17T04:14:34;711.35;;;639.42;;
29168;SDS011;16219;42.864;23.360;2023-08-17T04:17:01;697.72;;;628.65;;
29168;SDS011;16219;42.864;23.360;2023-08-17T04:19:28;686.65;;;617.42;;
29168;SDS011;16219;42.864;23.360;2023-08-17T04:21:55;708.75;;;638.42;;
29168;SDS011;16219;42.864;23.360;2023-08-17T04:24:24;714.78;;;641.88;;
29168;SDS011;16219;42.864;23.360;2023-08-17T04:26:51;727.42;;;652.45;;
29168;SDS011;16219;42.864;23.360;2023-08-17T04:29:19;802.80;;;721.55;;
29168;SDS011;16219;42.864;23.360;2023-08-17T04:31:47;712.25;;;638.90;;
29168;SDS011;16219;42.864;23.360;2023-08-17T04:34:14;761.00;;;682.35;;
29168;SDS011;16219;42.864;23.360;2023-08-17T04:36:42;566.85;;;495.88;;
29168;SDS011;16219;42.864;23.360;2023-08-17T04:39:09;342.23;;;265.55;;
29168;SDS011;16219;42.864;23.360;2023-08-17T04:41:36;108.47;;;89.68;;
29168;SDS011;16219;42.864;23.360;2023-08-17T04:44:06;44.28;;;35.58;;
29168;SDS011;16219;42.864;23.360;2023-08-17T04:46:34;20.98;;;15.27;;
29168;SDS011;16219;42.864;23.360;2023-08-17T04:49:03;14.32;;;6.63;;
29168;SDS011;16219;42.864;23.360;2023-08-17T04:51:30;7.45;;;6.75;;
29168;SDS011;16219;42.864;23.360;2023-08-17T04:53:58;16.77;;;11.25;;
29168;SDS011;16219;42.864;23.360;2023-08-17T04:56:26;26.88;;;15.18;;
29168;SDS011;16219;42.864;23.360;2023-08-17T04:58:53;34.17;;;24.17;;
29168;SDS011;16219;42.864;23.360;2023-08-17T05:01:24;50.13;;;33.38;;
29168;SDS011;16219;42.864;23.360;2023-08-17T05:03:51;64.03;;;50.20;;
29168;SDS011;16219;42.864;23.360;2023-08-17T05:06:20;41.97;;;27.52;;
29168;SDS011;16219;42.864;23.360;2023-08-17T05:08:48;23.35;;;15.20;;
29168;SDS011;16219;42.864;23.360;2023-08-17T05:11:15;9.23;;;8.52;;
29168;SDS011;16219;42.864;23.360;2023-08-17T05:13:43;29.05;;;18.13;;
29168;SDS011;16219;42.864;23.360;2023-08-17T05:16:10;28.27;;;17.65;;
29168;SDS011;16219;42.864;23.360;2023-08-17T05:18:37;38.88;;;26.58;;
29168;SDS011;16219;42.864;23.360;2023-08-17T05:21:06;22.05;;;18.60;;
29168;SDS011;16219;42.864;23.360;2023-08-17T05:23:35;18.95;;;17.30;;
29168;SDS011;16219;42.864;23.360;2023-08-17T05:26:02;41.72;;;36.50;;
29168;SDS011;16219;42.864;23.360;2023-08-17T05:28:29;37.55;;;33.63;;
29168;SDS011;16219;42.864;23.360;2023-08-17T05:31:02;111.05;;;69.65;;
29168;SDS011;16219;42.864;23.360;2023-08-17T05:35:58;113.82;;;87.72;;
29168;SDS011;16219;42.864;23.360;2023-08-17T05:38:26;114.53;;;72.78;;
29168;SDS011;16219;42.864;23.360;2023-08-17T05:40:55;124.85;;;91.65;;
29168;SDS011;16219;42.864;23.360;2023-08-17T05:43:23;62.30;;;51.25;;
29168;SDS011;16219;42.864;23.360;2023-08-17T05:45:50;99.07;;;59.47;;
29168;SDS011;16219;42.864;23.360;2023-08-17T05:48:18;80.32;;;58.30;;
29168;SDS011;16219;42.864;23.360;2023-08-17T05:50:46;57.03;;;37.47;;
29168;SDS011;16219;42.864;23.360;2023-08-17T05:53:13;28.20;;;23.95;;
29168;SDS011;16219;42.864;23.360;2023-08-17T05:55:40;95.57;;;54.53;;
29168;SDS011;16219;42.864;23.360;2023-08-17T05:58:08;39.33;;;32.50;;
29168;SDS011;16219;42.864;23.360;2023-08-17T06:00:35;30.90;;;21.15;;
29168;SDS011;16219;42.864;23.360;2023-08-17T06:03:03;18.88;;;16.65;;
29168;SDS011;16219;42.864;23.360;2023-08-17T06:05:30;21.48;;;19.63;;
29168;SDS011;16219;42.864;23.360;2023-08-17T06:07:57;45.67;;;30.50;;
29168;SDS011;16219;42.864;23.360;2023-08-17T06:10:24;29.98;;;25.85;;
29168;SDS011;16219;42.864;23.360;2023-08-17T06:12:51;11.90;;;8.40;;
29168;SDS011;16219;42.864;23.360;2023-08-17T06:15:20;19.60;;;10.93;;
29168;SDS011;16219;42.864;23.360;2023-08-17T06:17:47;15.32;;;13.18;;
29168;SDS011;16219;42.864;23.360;2023-08-17T06:20:15;6.85;;;6.00;;
29168;SDS011;16219;42.864;23.360;2023-08-17T06:22:42;3.97;;;3.35;;
29168;SDS011;16219;42.864;23.360;2023-08-17T06:25:09;3.22;;;2.92;;
29168;SDS011;16219;42.864;23.360;2023-08-17T06:27:37;2.70;;;2.47;;
29168;SDS011;16219;42.864;23.360;2023-08-17T06:30:05;3.45;;;3.15;;
29168;SDS011;16219;42.864;23.360;2023-08-17T06:32:34;8.38;;;4.63;;
29168;SDS011;16219;42.864;23.360;2023-08-17T06:35:01;2.05;;;1.95;;
29168;SDS011;16219;42.864;23.360;2023-08-17T06:37:28;3.00;;;2.13;;
29168;SDS011;16219;42.864;23.360;2023-08-17T06:39:55;21.33;;;3.65;;
29168;SDS011;16219;42.864;23.360;2023-08-17T06:42:22;3.28;;;2.17;;
29168;SDS011;16219;42.864;23.360;2023-08-17T06:44:49;2.50;;;1.67;;
29168;SDS011;16219;42.864;23.360;2023-08-17T06:47:16;3.83;;;1.92;;
29168;SDS011;16219;42.864;23.360;2023-08-17T06:49:45;6.45;;;2.33;;
29168;SDS011;16219;42.864;23.360;2023-08-17T06:52:12;1.85;;;1.70;;
29168;SDS011;16219;42.864;23.360;2023-08-17T06:54:39;2.28;;;1.65;;
29168;SDS011;16219;42.864;23.360;2023-08-17T06:57:06;1.48;;;1.38;;
29168;SDS011;16219;42.864;23.360;2023-08-17T06:59:33;3.85;;;1.67;;
29168;SDS011;16219;42.864;23.360;2023-08-17T07:02:00;1.42;;;1.33;;
29168;SDS011;16219;42.864;23.360;2023-08-17T07:04:28;2.15;;;1.88;;
29168;SDS011;16219;42.864;23.360;2023-08-17T07:06:56;3.90;;;1.48;;
29168;SDS011;16219;42.864;23.360;2023-08-17T07:09:23;1.70;;;1.55;;
29168;SDS011;16219;42.864;23.360;2023-08-17T07:11:50;2.47;;;1.98;;
29168;SDS011;16219;42.864;23.360;2023-08-17T07:14:17;3.38;;;1.98;;
29168;SDS011;16219;42.864;23.360;2023-08-17T07:16:44;2.00;;;1.65;;
29168;SDS011;16219;42.864;23.360;2023-08-17T07:19:11;1.77;;;1.67;;
29168;SDS011;16219;42.864;23.360;2023-08-17T07:21:39;11.75;;;2.42;;
29168;SDS011;16219;42.864;23.360;2023-08-17T07:24:14;2.95;;;1.90;;
29168;SDS011;16219;42.864;23.360;2023-08-17T07:26:42;2.42;;;1.83;;
29168;SDS011;16219;42.864;23.360;2023-08-17T07:29:10;3.35;;;1.70;;
29168;SDS011;16219;42.864;23.360;2023-08-17T07:31:37;1.75;;;1.65;;
29168;SDS011;16219;42.864;23.360;2023-08-17T07:34:05;1.77;;;1.23;;
29168;SDS011;16219;42.864;23.360;2023-08-17T07:36:33;1.45;;;1.30;;
29168;SDS011;16219;42.864;23.360;2023-08-17T07:39:00;3.88;;;1.08;;
29168;SDS011;16219;42.864;23.360;2023-08-17T07:41:28;3.22;;;1.50;;
29168;SDS011;16219;42.864;23.360;2023-08-17T07:43:55;1.60;;;1.50;;
29168;SDS011;16219;42.864;23.360;2023-08-17T07:46:23;3.70;;;1.92;;
29168;SDS011;16219;42.864;23.360;2023-08-17T07:48:50;2.05;;;1.75;;
29168;SDS011;16219;42.864;23.360;2023-08-17T07:51:17;3.05;;;1.35;;
29168;SDS011;16219;42.864;23.360;2023-08-17T07:53:44;1.27;;;1.17;;
29168;SDS011;16219;42.864;23.360;2023-08-17T07:56:12;3.95;;;2.45;;
29168;SDS011;16219;42.864;23.360;2023-08-17T07:58:41;1.48;;;1.38;;
29168;SDS011;16219;42.864;23.360;2023-08-17T08:01:08;1.75;;;1.00;;
29168;SDS011;16219;42.864;23.360;2023-08-17T08:03:35;2.67;;;1.40;;
29168;SDS011;16219;42.864;23.360;2023-08-17T08:06:02;1.48;;;1.35;;
29168;SDS011;16219;42.864;23.360;2023-08-17T08:08:30;2.40;;;1.45;;
29168;SDS011;16219;42.864;23.360;2023-08-17T08:10:58;1.38;;;1.20;;
29168;SDS011;16219;42.864;23.360;2023-08-17T08:13:25;1.65;;;1.13;;
29168;SDS011;16219;42.864;23.360;2023-08-17T08:16:03;1.17;;;1.08;;
29168;SDS011;16219;42.864;23.360;2023-08-17T08:18:30;2.50;;;1.30;;
29168;SDS011;16219;42.864;23.360;2023-08-17T08:20:58;2.25;;;1.17;;
29168;SDS011;16219;42.864;23.360;2023-08-17T08:23:25;8.48;;;1.30;;
29168;SDS011;16219;42.864;23.360;2023-08-17T08:25:52;1.83;;;1.20;;
29168;SDS011;16219;42.864;23.360;2023-08-17T08:28:19;1.13;;;1.02;;
29168;SDS011;16219;42.864;23.360;2023-08-17T08:30:46;2.65;;;1.63;;
29168;SDS011;16219;42.864;23.360;2023-08-17T08:33:15;2.30;;;1.95;;
29168;SDS011;16219;42.864;23.360;2023-08-17T08:35:42;0.82;;;0.82;;
29168;SDS011;16219;42.864;23.360;2023-08-17T08:38:09;17.85;;;2.25;;
29168;SDS011;16219;42.864;23.360;2023-08-17T08:40:37;1.75;;;1.00;;
29168;SDS011;16219;42.864;23.360;2023-08-17T08:43:06;1.23;;;1.05;;
29168;SDS011;16219;42.864;23.360;2023-08-17T08:45:35;6.07;;;1.20;;
29168;SDS011;16219;42.864;23.360;2023-08-17T08:48:04;1.50;;;1.40;;
29168;SDS011;16219;42.864;23.360;2023-08-17T08:50:33;1.25;;;1.15;;
29168;SDS011;16219;42.864;23.360;2023-08-17T08:53:03;1.27;;;0.93;;
29168;SDS011;16219;42.864;23.360;2023-08-17T08:58:03;2.72;;;1.08;;
29168;SDS011;16219;42.864;23.360;2023-08-17T09:00:31;0.85;;;0.85;;
29168;SDS011;16219;42.864;23.360;2023-08-17T09:03:03;2.22;;;1.10;;
29168;SDS011;16219;42.864;23.360;2023-08-17T09:05:31;3.00;;;1.10;;
29168;SDS011;16219;42.864;23.360;2023-08-17T09:08:01;5.20;;;1.38;;
29168;SDS011;16219;42.864;23.360;2023-08-17T09:10:30;2.10;;;1.40;;
29168;SDS011;16219;42.864;23.360;2023-08-17T09:12:57;0.57;;;0.57;;
29168;SDS011;16219;42.864;23.360;2023-08-17T09:15:24;3.20;;;1.60;;
29168;SDS011;16219;42.864;23.360;2023-08-17T09:17:51;1.27;;;0.85;;
29168;SDS011;16219;42.864;23.360;2023-08-17T09:20:36;4.53;;;1.60;;
29168;SDS011;16219;42.864;23.360;2023-08-17T09:23:09;1.25;;;1.15;;
29168;SDS011;16219;42.864;23.360;2023-08-17T09:25:38;4.43;;;1.08;;
29168;SDS011;16219;42.864;23.360;2023-08-17T09:28:07;4.13;;;1.27;;
29168;SDS011;16219;42.864;23.360;2023-08-17T09:33:21;1.35;;;0.75;;
29168;SDS011;16219;42.864;23.360;2023-08-17T09:35:50;1.75;;;1.25;;
29168;SDS011;16219;42.864;23.360;2023-08-17T09:38:18;8.70;;;1.92;;
29168;SDS011;16219;42.864;23.360;2023-08-17T09:40:46;1.33;;;0.98;;
29168;SDS011;16219;42.864;23.360;2023-08-17T09:43:14;1.50;;;1.40;;
29168;SDS011;16219;42.864;23.360;2023-08-17T09:45:42;0.75;;;0.75;;
29168;SDS011;16219;42.864;23.360;2023-08-17T09:48:11;0.98;;;0.98;;
29168;SDS011;16219;42.864;23.360;2023-08-17T09:50:42;2.08;;;1.25;;
29168;SDS011;16219;42.864;23.360;2023-08-17T09:53:13;1.52;;;1.42;;
29168;SDS011;16219;42.864;23.360;2023-08-17T09:55:41;0.90;;;0.88;;
29168;SDS011;16219;42.864;23.360;2023-08-17T09:58:09;0.80;;;0.80;;
29168;SDS011;16219;42.864;23.360;2023-08-17T10:00:40;1.30;;;1.20;;
29168;SDS011;16219;42.864;23.360;2023-08-17T10:03:11;1.80;;;1.17;;
29168;SDS011;16219;42.864;23.360;2023-08-17T10:05:40;0.93;;;0.90;;
29168;SDS011;16219;42.864;23.360;2023-08-17T10:08:10;1.25;;;1.17;;
29168;SDS011;16219;42.864;23.360;2023-08-17T10:10:40;1.20;;;1.10;;
29168;SDS011;16219;42.864;23.360;2023-08-17T10:13:10;2.25;;;1.52;;
29168;SDS011;16219;42.864;23.360;2023-08-17T10:15:41;1.65;;;1.27;;
29168;SDS011;16219;42.864;23.360;2023-08-17T10:18:14;1.35;;;1.25;;
29168;SDS011;16219;42.864;23.360;2023-08-17T10:20:49;2.15;;;0.80;;
29168;SDS011;16219;42.864;23.360;2023-08-17T10:23:27;1.30;;;1.17;;
29168;SDS011;16219;42.864;23.360;2023-08-17T10:25:57;0.93;;;0.88;;
29168;SDS011;16219;42.864;23.360;2023-08-17T10:28:24;2.45;;;1.58;;
29168;SDS011;16219;42.864;23.360;2023-08-17T10:30:51;2.80;;;1.23;;
29168;SDS011;16219;42.864;23.360;2023-08-17T10:33:18;0.77;;;0.77;;
29168;SDS011;16219;42.864;23.360;2023-08-17T10:35:46;1.02;;;0.75;;
29168;SDS011;16219;42.864;23.360;2023-08-17T10:38:14;0.93;;;0.93;;
29168;SDS011;16219;42.864;23.360;2023-08-17T10:40:42;1.42;;;1.20;;
29168;SDS011;16219;42.864;23.360;2023-08-17T10:43:12;5.53;;;1.02;;
29168;SDS011;16219;42.864;23.360;2023-08-17T10:45:39;1.85;;;1.17;;
29168;SDS011;16219;42.864;23.360;2023-08-17T10:48:26;1.55;;;1.45;;
29168;SDS011;16219;42.864;23.360;2023-08-17T10:51:03;3.80;;;1.25;;
29168;SDS011;16219;42.864;23.360;2023-08-17T10:53:40;1.92;;;1.02;;
29168;SDS011;16219;42.864;23.360;2023-08-17T10:56:13;1.13;;;1.02;;
29168;SDS011;16219;42.864;23.360;2023-08-17T10:58:44;3.50;;;1.45;;
29168;SDS011;16219;42.864;23.360;2023-08-17T11:01:11;1.30;;;1.20;;
29168;SDS011;16219;42.864;23.360;2023-08-17T11:03:41;1.33;;;1.23;;
29168;SDS011;16219;42.864;23.360;2023-08-17T11:06:16;1.10;;;1.00;;
29168;SDS011;16219;42.864;23.360;2023-08-17T11:08:51;3.00;;;1.10;;
29168;SDS011;16219;42.864;23.360;2023-08-17T11:11:21;1.33;;;1.23;;
29168;SDS011;16219;42.864;23.360;2023-08-17T11:13:52;1.85;;;0.90;;
29168;SDS011;16219;42.864;23.360;2023-08-17T11:16:19;2.35;;;1.17;;
29168;SDS011;16219;42.864;23.360;2023-08-17T11:18:47;1.75;;;1.40;;
29168;SDS011;16219;42.864;23.360;2023-08-17T11:21:15;0.80;;;0.80;;
29168;SDS011;16219;42.864;23.360;2023-08-17T11:23:42;1.48;;;1.27;;
29168;SDS011;16219;42.864;23.360;2023-08-17T11:26:09;1.52;;;0.85;;
29168;SDS011;16219;42.864;23.360;2023-08-17T11:28:37;0.80;;;0.80;;
29168;SDS011;16219;42.864;23.360;2023-08-17T11:31:08;0.88;;;0.88;;
29168;SDS011;16219;42.864;23.360;2023-08-17T11:33:36;1.80;;;1.55;;
29168;SDS011;16219;42.864;23.360;2023-08-17T11:36:05;1.38;;;1.23;;
29168;SDS011;16219;42.864;23.360;2023-08-17T11:38:33;1.25;;;1.15;;
29168;SDS011;16219;42.864;23.360;2023-08-17T11:41:01;1.52;;;1.27;;
29168;SDS011;16219;42.864;23.360;2023-08-17T11:43:29;5.63;;;0.93;;
29168;SDS011;16219;42.864;23.360;2023-08-17T11:45:59;2.05;;;1.35;;
29168;SDS011;16219;42.864;23.360;2023-08-17T11:48:28;1.65;;;1.15;;
29168;SDS011;16219;42.864;23.360;2023-08-17T11:50:55;1.75;;;1.38;;
29168;SDS011;16219;42.864;23.360;2023-08-17T11:53:23;1.63;;;1.33;;
29168;SDS011;16219;42.864;23.360;2023-08-17T11:55:50;1.60;;;1.33;;
29168;SDS011;16219;42.864;23.360;2023-08-17T11:58:18;1.20;;;0.90;;
29168;SDS011;16219;42.864;23.360;2023-08-17T12:00:45;1.23;;;1.13;;
29168;SDS011;16219;42.864;23.360;2023-08-17T12:03:15;2.33;;;1.67;;
29168;SDS011;16219;42.864;23.360;2023-08-17T12:05:44;1.88;;;1.15;;
29168;SDS011;16219;42.864;23.360;2023-08-17T12:08:12;0.85;;;0.85;;
29168;SDS011;16219;42.864;23.360;2023-08-17T12:10:40;0.80;;;0.80;;
29168;SDS011;16219;42.864;23.360;2023-08-17T12:13:10;7.68;;;1.17;;
29168;SDS011;16219;42.864;23.360;2023-08-17T12:15:38;0.65;;;0.65;;
29168;SDS011;16219;42.864;23.360;2023-08-17T12:18:05;1.10;;;1.10;;
29168;SDS011;16219;42.864;23.360;2023-08-17T12:20:32;1.45;;;1.00;;
29168;SDS011;16219;42.864;23.360;2023-08-17T12:23:03;3.97;;;1.58;;
29168;SDS011;16219;42.864;23.360;2023-08-17T12:25:31;5.15;;;0.90;;
29168;SDS011;16219;42.864;23.360;2023-08-17T12:27:58;1.05;;;0.98;;
29168;SDS011;16219;42.864;23.360;2023-08-17T12:30:26;1.00;;;0.82;;
29168;SDS011;16219;42.864;23.360;2023-08-17T12:32:56;12.63;;;1.52;;
29168;SDS011;16219;42.864;23.360;2023-08-17T12:35:24;2.63;;;0.75;;
29168;SDS011;16219;42.864;23.360;2023-08-17T12:37:51;1.23;;;1.10;;
29168;SDS011;16219;42.864;23.360;2023-08-17T12:40:20;1.38;;;1.20;;
29168;SDS011;16219;42.864;23.360;2023-08-17T12:42:48;1.02;;;0.93;;
29168;SDS011;16219;42.864;23.360;2023-08-17T12:45:15;1.45;;;1.30;;
29168;SDS011;16219;42.864;23.360;2023-08-17T12:47:43;1.33;;;1.23;;
29168;SDS011;16219;42.864;23.360;2023-08-17T12:50:11;3.35;;;1.58;;
29168;SDS011;16219;42.864;23.360;2023-08-17T12:52:38;1.35;;;1.13;;
29168;SDS011;16219;42.864;23.360;2023-08-17T12:55:06;1.48;;;1.17;;
29168;SDS011;16219;42.864;23.360;2023-08-17T12:57:35;1.17;;;1.08;;
29168;SDS011;16219;42.864;23.360;2023-08-17T13:00:02;0.82;;;0.82;;
29168;SDS011;16219;42.864;23.360;2023-08-17T13:02:30;1.80;;;1.27;;
29168;SDS011;16219;42.864;23.360;2023-08-17T13:04:57;2.67;;;2.00;;
29168;SDS011;16219;42.864;23.360;2023-08-17T13:07:23;2.10;;;1.55;;
29168;SDS011;16219;42.864;23.360;2023-08-17T13:09:53;1.30;;;1.17;;
29168;SDS011;16219;42.864;23.360;2023-08-17T13:12:21;3.70;;;1.48;;
29168;SDS011;16219;42.864;23.360;2023-08-17T13:14:49;4.05;;;1.67;;
29168;SDS011;16219;42.864;23.360;2023-08-17T13:17:17;1.23;;;1.13;;
29168;SDS011;16219;42.864;23.360;2023-08-17T13:19:44;1.70;;;1.58;;
29168;SDS011;16219;42.864;23.360;2023-08-17T13:22:12;0.95;;;0.95;;
29168;SDS011;16219;42.864;23.360;2023-08-17T13:24:39;1.30;;;1.20;;
29168;SDS011;16219;42.864;23.360;2023-08-17T13:27:07;0.95;;;0.95;;
29168;SDS011;16219;42.864;23.360;2023-08-17T13:29:34;0.68;;;0.68;;
29168;SDS011;16219;42.864;23.360;2023-08-17T13:32:05;1.08;;;1.02;;
29168;SDS011;16219;42.864;23.360;2023-08-17T13:34:33;2.97;;;1.58;;
29168;SDS011;16219;42.864;23.360;2023-08-17T13:37:00;1.40;;;1.10;;
29168;SDS011;16219;42.864;23.360;2023-08-17T13:39:28;1.83;;;1.35;;
29168;SDS011;16219;42.864;23.360;2023-08-17T13:41:56;2.47;;;1.13;;
29168;SDS011;16219;42.864;23.360;2023-08-17T13:44:23;1.13;;;1.10;;
29168;SDS011;16219;42.864;23.360;2023-08-17T13:46:51;1.08;;;1.00;;
29168;SDS011;16219;42.864;23.360;2023-08-17T13:49:20;1.42;;;1.23;;
29168;SDS011;16219;42.864;23.360;2023-08-17T13:51:47;0.80;;;0.70;;
29168;SDS011;16219;42.864;23.360;2023-08-17T13:54:14;3.25;;;0.98;;
29168;SDS011;16219;42.864;23.360;2023-08-17T13:56:42;1.15;;;1.02;;
29168;SDS011;16219;42.864;23.360;2023-08-17T13:59:09;1.83;;;1.55;;
29168;SDS011;16219;42.864;23.360;2023-08-17T14:01:37;1.90;;;1.15;;
29168;SDS011;16219;42.864;23.360;2023-08-17T14:04:05;0.98;;;0.82;;
29168;SDS011;16219;42.864;23.360;2023-08-17T14:06:38;2.50;;;1.23;;
29168;SDS011;16219;42.864;23.360;2023-08-17T14:09:05;1.35;;;1.25;;
29168;SDS011;16219;42.864;23.360;2023-08-17T14:11:33;1.67;;;1.10;;
29168;SDS011;16219;42.864;23.360;2023-08-17T14:14:01;1.92;;;0.73;;
29168;SDS011;16219;42.864;23.360;2023-08-17T14:16:29;2.72;;;1.30;;
29168;SDS011;16219;42.864;23.360;2023-08-17T14:18:58;1.33;;;1.23;;
29168;SDS011;16219;42.864;23.360;2023-08-17T14:21:25;1.20;;;0.82;;
29168;SDS011;16219;42.864;23.360;2023-08-17T14:23:54;2.25;;;1.17;;
29168;SDS011;16219;42.864;23.360;2023-08-17T14:26:21;0.88;;;0.88;;